Cornell, Michigan
Current Conditions -  °F | °C
As of 8:55 AM on Friday 24 Oct 2014 (Local Time) from KESC Reporting Station
Overcast Overcast  
Wind Chill: 41°   Ceiling: 300
Heat Index: 45°   Visibility: 1.7mi
Dew Point: 43°   Wind: 7mph
Humidity: 93%   Direction: 270°W
Pressure: 30"   Gusts: NA
Location:  45.9°N, 87.22°W
Report Text: KESC 241255Z AUTO 27006KT 1 3/4SM OVC003 07/06 A3000 RMK AO1
Loading
Personal Weather Stations






























Interactive Weather Map
Tropical Storm Tracking
New forecast layout! Learn more

10-Day Weather Forecast

Advertisements
Track Severe Weather on mobile